Terminal Aerodrome Forecast
Issued by NWS Louisville, KY

Home | Current Version | Previous Version | Text Only | Print | Product List | Glossary On
Versions: 1 2 3 4 5 6 7 8 9 10 11 12 13 14 15 16 17 18 19 20
604
FTUS43 KLMK 121720
TAFBWG
TAF
KBWG 121720Z 1218/1318 31008G15KT P6SM OVC025
     FM130300 34008KT P6SM SCT022=

USA.gov is the U.S. government's official web portal to all federal, state and local government web resources and services.